Denver International Airport
KDEN : rendu visible

Aérodrome :











RETROUVEZ-NOUS SUR...

 
LOGIN :

S'inscrire | Disclaimer

   EN    FR    IT 

 









Légende :    VFR   VFR Marginal   IFR   IFR Intensif   IFR Très Intensif
Visi : 
Plafond : 
>= 8 km
>= 3000ft
5 à 8 km
1000 à 3000 ft
1500m à 5 km
500 à 1000 ft
800 à 1500m
200 à 500 ft
< 800m
< 200 ft
Symboles :   Orages  Brouillard  Fortes neiges  Fortes précipitations  Vent > 20 kt






- Altitude de l'aérodrome : 5431 ft
- Code IATA : DEN


KDEN - Denver International

DERNIER METAR :
  • 211553Z 03007KT 2SM BR BKN003 OVC007 M03/M04 A3011 RMK AO2 SLP217 I1002 T10331039

METARs EXPIRÉS :
  • 211534Z 02007KT 2SM BR OVC005 M03/M03 A3010 RMK AO2 I1001 T10331033
  • 211453Z 05005KT 2SM BR OVC002 M03/M04 A3010 RMK AO2 SLP212 I1000 I3002 T10331039 53013
  • 211353Z 01007KT 2SM BR OVC003 M03/M04 A3008 RMK AO2 SFC VIS 2 1/2 SLP203 I1001 T10331039

TAF KDEN
Valide du 21 à 15h jusqu'au 22 à 18h UTC


211510Z 2115/2218 03008KT 3SM BR OVC003
TEMPO 2115/2117 1SM -FZDZSN BR OVC002
FM211700 06006KT 5SM -SHSN BR OVC006
TEMPO 2120/2124 2SM -SN BR SCT006 OVC012
FM220000 09007KT 3SM -SN BR BKN005 OVC012
FM220500 12008KT 2SM -SN BR OVC006
FM221000 15007KT 1SM BR BKN004 OVC009
FM221400 20008KT 5SM BR SCT005 BKN012



MET'MAP, la Météo Aéronautique d'un coup d'oeil ! - Copyright ORBIFLY Décembre 2007 - Disclaimer

ORBIFLY MET'MAP TEAM :

Programmation & Développement : Alexandra Zaïnal
Conception & Développement : Baudouin d'Aumeries
Co-Programmation & Développement : Marc-Olivier Méhu
Soutien technique & logistique : Manuel Goepfert

Contact : metmap@orbifly.com




SOURCES & CREDITS :

   NOAA       Earth
Advisory